createdAt,value
2023-06-02T00:26:44.973Z,14.5
2023-06-02T00:46:57.101Z,14.7
2023-06-02T00:57:03.091Z,14.7
2023-06-02T01:07:09.130Z,14.7
2023-06-02T01:17:15.179Z,14.7
2023-06-02T01:27:21.239Z,14.7
2023-06-02T01:37:27.268Z,14.7
2023-06-02T01:47:33.342Z,14.7
2023-06-02T01:57:39.355Z,14.7
2023-06-02T02:07:45.389Z,14.7
2023-06-02T02:17:51.428Z,14.7
2023-06-02T02:27:57.477Z,14.7
2023-06-02T02:38:03.528Z,14.7
2023-06-02T02:48:09.568Z,14.7
2023-06-02T02:58:15.608Z,14.7
2023-06-02T03:08:21.634Z,14.7
2023-06-02T03:18:27.694Z,14.9
2023-06-02T03:28:33.738Z,14.9
2023-06-02T03:38:39.772Z,14.7
2023-06-02T03:48:45.844Z,14.9
2023-06-02T03:58:51.886Z,14.7
2023-06-02T04:19:03.977Z,14.9
2023-06-02T04:29:10.008Z,15.1
2023-06-02T04:39:16.053Z,15.1
2023-06-02T04:49:22.113Z,15.1
2023-06-02T04:59:28.112Z,15.3
2023-06-02T05:09:34.175Z,15.3
2023-06-02T05:19:40.205Z,15.3
2023-06-02T05:29:46.246Z,15.4
2023-06-02T05:39:52.295Z,15.4
2023-06-02T05:49:58.333Z,15.4
2023-06-02T06:10:10.422Z,16.4
2023-06-02T06:20:16.466Z,16.6
2023-06-02T06:30:23.629Z,16.4
2023-06-02T06:50:35.730Z,16.4
2023-06-02T07:00:41.785Z,16.8
2023-06-02T07:20:55.023Z,17
2023-06-02T07:31:09.016Z,16.8
2023-06-02T07:41:07.070Z,16.6
2023-06-02T07:51:13.117Z,16.4
2023-06-02T08:01:19.150Z,16.2
2023-06-02T08:11:25.187Z,16.2
2023-06-02T08:21:31.394Z,16.2
2023-06-02T08:41:43.308Z,16.4
2023-06-02T08:51:49.345Z,16.2
2023-06-02T09:01:55.541Z,16.2
2023-06-02T09:12:01.435Z,16.5
2023-06-02T09:22:07.522Z,16.5
2023-06-02T09:32:13.605Z,16.5
2023-06-02T09:42:19.590Z,16.5
2023-06-02T09:52:25.654Z,16.3
2023-06-02T10:02:31.762Z,16.5
2023-06-02T10:12:37.721Z,16.9
2023-06-02T10:22:43.740Z,16.9
2023-06-02T10:42:55.958Z,16.9
2023-06-02T10:53:02.203Z,16.9
2023-06-02T11:13:13.944Z,16.9
2023-06-02T11:23:20.209Z,17.3
2023-06-02T11:33:26.042Z,16.9
2023-06-02T11:43:32.123Z,16.7
2023-06-02T11:53:38.135Z,16.3
2023-06-02T12:13:50.211Z,16.1
2023-06-02T12:23:56.262Z,16.1
2023-06-02T12:34:02.303Z,16.1
2023-06-02T12:44:08.332Z,15.9
2023-06-02T12:54:14.390Z,15.9
2023-06-02T13:04:20.602Z,15.9
2023-06-02T13:14:26.509Z,15.9
2023-06-02T13:34:38.598Z,15.9
2023-06-02T13:44:44.619Z,15.7
2023-06-02T13:54:50.648Z,15.7
2023-06-02T14:04:56.708Z,15.7
2023-06-02T14:15:02.744Z,15.7
2023-06-02T14:25:08.823Z,15.7
2023-06-02T14:35:14.816Z,15.7
2023-06-02T14:45:20.847Z,15.7
2023-06-02T15:05:32.944Z,15.5
2023-06-02T15:15:38.987Z,15.5
2023-06-02T15:25:45.017Z,15.5
2023-06-02T15:35:51.083Z,15.5
2023-06-02T15:45:57.169Z,15.5
2023-06-02T15:56:03.295Z,15.5
2023-06-02T16:06:09.211Z,15.5
2023-06-02T16:26:21.512Z,15.3
2023-06-02T16:36:27.360Z,15.3
2023-06-02T16:56:39.412Z,15.3
2023-06-02T17:16:51.507Z,15.3
2023-06-02T17:37:03.605Z,15.3
2023-06-02T17:47:09.666Z,15.3
2023-06-02T17:57:15.680Z,15.3
2023-06-02T18:07:21.719Z,15.3
2023-06-02T18:17:27.811Z,15.3
2023-06-02T18:27:33.812Z,15.1
2023-06-02T18:37:39.844Z,15.1
2023-06-02T18:57:51.945Z,15.1
2023-06-02T19:07:57.961Z,15.1
2023-06-02T19:18:04.113Z,15.1
2023-06-02T19:28:10.072Z,15.1
2023-06-02T19:38:16.117Z,15.1
2023-06-02T19:48:22.140Z,15.1
2023-06-02T19:58:28.200Z,15.1
2023-06-02T20:08:34.244Z,15.1
2023-06-02T20:18:40.257Z,15.1
2023-06-02T20:28:51.316Z,15.1
2023-06-02T20:38:52.363Z,15.1
2023-06-02T20:48:58.412Z,15.1
2023-06-02T20:59:04.463Z,15.1
2023-06-02T21:09:10.518Z,15.1
2023-06-02T21:19:16.562Z,15.1
2023-06-02T21:29:22.581Z,15.1
2023-06-02T21:59:40.697Z,15.1
2023-06-02T22:09:46.769Z,15.1
2023-06-02T22:19:53.299Z,15.1
2023-06-02T22:29:58.856Z,15.1
2023-06-02T22:40:04.926Z,15.1
2023-06-02T22:50:10.914Z,15.1
2023-06-02T23:10:23.006Z,15.1
2023-06-02T23:20:29.055Z,15.1
2023-06-02T23:30:35.096Z,15.1
2023-06-02T23:40:41.132Z,15.1
2023-06-02T23:50:47.196Z,15.1
